Time;durP1;ratioP1;P1;durP2;ratioP2;P2;SDS_P1;SDS_P2;PMS_P1;PMS_P2;Temp;Humidity;BMP_temperature;BMP_pressure;BME280_temperature;BME280_humidity;BME280_pressure;Samples;Min_cycle;Max_cycle;Signal;HPM_P1;HPM_P2
2022/10/16 00:00:45;;;;;;;0.00;0.00;;;13.10;99.90;;;;;;5074342;28;20047;-83
2022/10/16 00:03:11;;;;;;;0.00;0.00;;;13.50;99.90;;;;;;5057264;28;20114;-82
2022/10/16 00:05:41;;;;;;;0.00;0.00;;;13.20;99.90;;;;;;5057562;28;20048;-82
2022/10/16 00:08:09;;;;;;;0.00;0.00;;;13.10;99.90;;;;;;5057248;28;20138;-83
2022/10/16 00:10:35;;;;;;;0.00;0.00;;;13.10;99.90;;;;;;5057288;28;20052;-82
2022/10/16 00:13:01;;;;;;;0.30;0.20;;;13.20;99.90;;;;;;5057333;28;20371;-83
2022/10/16 00:15:27;;;;;;;0.00;0.00;;;13.00;99.90;;;;;;5057413;28;20084;-83
2022/10/16 00:17:53;;;;;;;0.00;0.00;;;13.30;99.90;;;;;;5073582;28;20056;-83
2022/10/16 00:20:18;;;;;;;0.00;0.00;;;13.00;99.90;;;;;;5057264;28;20044;-83
2022/10/16 00:22:44;;;;;;;0.10;0.10;;;13.10;99.90;;;;;;5073237;28;20049;-83
2022/10/16 00:25:10;;;;;;;0.00;0.00;;;13.00;99.90;;;;;;5073149;28;20040;-83
2022/10/16 00:27:35;;;;;;;0.10;0.00;;;13.60;99.90;;;;;;5057165;28;20154;-83
2022/10/16 00:30:03;;;;;;;0.00;0.00;;;13.00;99.90;;;;;;5073618;28;20048;-83
2022/10/16 00:32:28;;;;;;;0.00;0.00;;;13.00;99.90;;;;;;5056782;28;20050;-83
2022/10/16 00:34:54;;;;;;;0.00;0.00;;;13.30;99.90;;;;;;5056826;28;20387;-83
2022/10/16 00:37:20;;;;;;;0.00;0.00;;;13.10;99.90;;;;;;5073390;28;20052;-83
2022/10/16 00:39:46;;;;;;;0.00;0.00;;;13.00;99.90;;;;;;5073193;28;20388;-82
2022/10/16 00:42:17;;;;;;;0.08;0.00;;;13.10;99.90;;;;;;5056734;28;20040;-82
2022/10/16 00:44:48;;;;;;;0.28;0.25;;;13.30;99.90;;;;;;5073571;28;20045;-82
2022/10/16 00:47:25;;;;;;;0.00;0.00;;;13.00;99.90;;;;;;5056784;28;20051;-83
2022/10/16 00:49:56;;;;;;;0.00;0.00;;;12.90;99.90;;;;;;5056634;28;20087;-83
2022/10/16 00:52:22;;;;;;;0.00;0.00;;;13.50;99.90;;;;;;5056640;28;20048;-82
2022/10/16 00:54:50;;;;;;;0.00;0.00;;;12.90;99.90;;;;;;5072883;28;20057;-83
2022/10/16 00:57:16;;;;;;;0.00;0.00;;;12.90;99.90;;;;;;5056418;28;20084;-83
2022/10/16 00:59:42;;;;;;;0.00;0.00;;;13.00;99.90;;;;;;5073082;28;20105;-83
2022/10/16 01:02:11;;;;;;;0.00;0.00;;;12.90;99.90;;;;;;5073027;28;20056;-82
2022/10/16 01:04:43;;;;;;;0.00;0.00;;;13.50;99.90;;;;;;5056326;28;20044;-82
2022/10/16 01:07:39;;;;;;;0.00;0.00;;;12.90;99.90;;;;;;5073891;28;20126;-82
2022/10/16 01:10:27;;;;;;;0.00;0.00;;;13.00;99.90;;;;;;5056454;28;20459;-82
2022/10/16 01:12:57;;;;;;;1.00;0.65;;;12.80;99.90;;;;;;5072798;28;20052;-83
2022/10/16 01:15:32;;;;;;;0.00;0.00;;;12.80;99.90;;;;;;5056497;28;20131;-82
2022/10/16 01:18:06;;;;;;;0.22;0.22;;;12.80;99.90;;;;;;5057531;28;20056;-83
2022/10/16 01:20:38;;;;;;;0.00;0.00;;;12.80;99.90;;;;;;5073105;28;20063;-83
2022/10/16 01:23:24;;;;;;;0.00;0.00;;;12.80;99.90;;;;;;5073708;28;20077;-82
2022/10/16 01:26:18;;;;;;;0.00;0.00;;;12.80;99.90;;;;;;5074295;28;20392;-83
2022/10/16 01:29:07;;;;;;;0.05;0.05;;;12.70;99.90;;;;;;5018910;28;20080;-82
2022/10/16 01:31:36;;;;;;;0.00;0.00;;;12.70;99.90;;;;;;5037583;28;20044;-83
2022/10/16 01:34:06;;;;;;;0.00;0.00;;;12.80;99.90;;;;;;5049912;28;20139;-82
2022/10/16 01:36:45;;;;;;;0.22;0.22;;;12.80;99.90;;;;;;5043727;28;20040;-82
2022/10/16 01:39:12;;;;;;;0.00;0.00;;;12.80;99.90;;;;;;5018869;28;20409;-83
2022/10/16 01:41:48;;;;;;;0.00;0.00;;;12.80;99.90;;;;;;5019036;28;20056;-82
2022/10/16 01:44:22;;;;;;;0.00;0.00;;;12.80;99.90;;;;;;5035507;28;20045;-82
2022/10/16 01:46:51;;;;;;;0.20;0.10;;;12.70;99.90;;;;;;5035649;28;20049;-83
2022/10/16 01:49:18;;;;;;;0.00;0.00;;;12.70;99.90;;;;;;5035343;28;20552;-83
2022/10/16 01:51:48;;;;;;;0.00;0.00;;;12.70;99.90;;;;;;5035257;28;20056;-83
2022/10/16 01:54:16;;;;;;;0.00;0.00;;;13.00;99.90;;;;;;5034856;28;20063;-83
2022/10/16 01:56:43;;;;;;;0.00;0.00;;;12.70;99.90;;;;;;5035342;28;20041;-83
2022/10/16 01:59:18;;;;;;;0.43;0.43;;;12.70;99.90;;;;;;5018640;28;20056;-83
2022/10/16 02:01:52;;;;;;;0.40;0.38;;;12.70;99.90;;;;;;5018615;28;20053;-83
2022/10/16 02:04:34;;;;;;;0.73;0.17;;;12.80;99.90;;;;;;5035437;28;20138;-82
2022/10/16 02:07:00;;;;;;;1.25;0.47;;;12.80;99.90;;;;;;5056326;28;20095;-82
2022/10/16 02:09:26;;;;;;;0.10;0.10;;;12.80;99.90;;;;;;5055278;28;20051;-83
2022/10/16 02:11:58;;;;;;;0.00;0.00;;;12.80;99.90;;;;;;5056945;28;20128;-83
2022/10/16 02:14:25;;;;;;;3.10;0.93;;;12.80;99.90;;;;;;5076378;28;20036;-82
2022/10/16 02:16:50;;;;;;;0.00;0.00;;;12.80;99.90;;;;;;5076367;28;20066;-83
2022/10/16 02:19:19;;;;;;;0.00;0.00;;;12.80;99.90;;;;;;5059361;28;20044;-83
2022/10/16 02:22:02;;;;;;;1.02;0.52;;;12.80;99.90;;;;;;5059424;28;20139;-83
2022/10/16 02:24:34;;;;;;;0.00;0.00;;;12.90;99.90;;;;;;5059737;28;20067;-83
2022/10/16 02:27:09;;;;;;;0.00;0.00;;;12.80;99.90;;;;;;5075926;28;20392;-83
2022/10/16 02:29:48;;;;;;;0.00;0.00;;;12.80;99.90;;;;;;5059416;28;20182;-83
2022/10/16 02:32:18;;;;;;;0.00;0.00;;;12.80;99.90;;;;;;5059180;28;20130;-82
2022/10/16 02:34:45;;;;;;;0.00;0.00;;;12.90;99.90;;;;;;5075293;28;20045;-83
2022/10/16 02:37:11;;;;;;;0.00;0.00;;;12.90;99.90;;;;;;5059090;28;20040;-83
2022/10/16 02:39:38;;;;;;;0.00;0.00;;;12.90;99.90;;;;;;5059128;28;20044;-83
2022/10/16 02:42:04;;;;;;;0.35;0.35;;;12.90;99.90;;;;;;5075407;28;20040;-82
2022/10/16 02:44:29;;;;;;;0.63;0.20;;;12.90;99.90;;;;;;5058871;28;20522;-83
2022/10/16 02:46:55;;;;;;;0.00;0.00;;;13.20;99.90;;;;;;5059201;28;20510;-83
2022/10/16 02:49:21;;;;;;;0.00;0.00;;;13.10;99.90;;;;;;5075331;28;20040;-83
2022/10/16 02:51:47;;;;;;;0.52;0.22;;;12.90;99.90;;;;;;5058731;28;20431;-83
2022/10/16 02:54:12;;;;;;;0.00;0.00;;;13.00;99.90;;;;;;5058370;28;20102;-83
2022/10/16 02:56:38;;;;;;;0.10;0.00;;;13.30;99.90;;;;;;5075508;28;20079;-82
2022/10/16 02:59:04;;;;;;;0.00;0.00;;;13.00;99.90;;;;;;5058486;28;20127;-83
2022/10/16 03:01:30;;;;;;;0.00;0.00;;;13.00;99.90;;;;;;5058570;28;20041;-82
2022/10/16 03:03:56;;;;;;;0.20;0.20;;;13.00;99.90;;;;;;5075466;28;20426;-82
2022/10/16 03:06:21;;;;;;;0.10;0.00;;;13.10;99.90;;;;;;5075074;28;20473;-82
2022/10/16 03:08:47;;;;;;;10.32;1.08;;;13.70;99.90;;;;;;5075124;28;20045;-82
2022/10/16 03:11:12;;;;;;;0.00;0.00;;;13.20;99.90;;;;;;5075246;28;20174;-82
2022/10/16 03:13:38;;;;;;;0.00;0.00;;;13.10;99.90;;;;;;5058177;28;20135;-82
2022/10/16 03:16:04;;;;;;;0.00;0.00;;;13.10;99.90;;;;;;5074984;28;20391;-82
2022/10/16 03:18:29;;;;;;;0.00;0.00;;;13.20;99.90;;;;;;5058758;28;20045;-82
2022/10/16 03:20:55;;;;;;;0.00;0.00;;;13.20;99.90;;;;;;5058521;28;20055;-83
2022/10/16 03:23:21;;;;;;;0.28;0.28;;;13.10;99.90;;;;;;5058247;28;20048;-83
2022/10/16 03:25:46;;;;;;;0.00;0.00;;;13.20;99.90;;;;;;5077071;28;20140;-82
2022/10/16 03:28:12;;;;;;;0.00;0.00;;;13.20;99.90;;;;;;5073718;28;20056;-83
2022/10/16 03:30:39;;;;;;;0.10;0.10;;;13.30;99.90;;;;;;5088894;28;20036;-83
2022/10/16 03:33:05;;;;;;;0.00;0.00;;;13.20;99.90;;;;;;5071927;28;20102;-83
2022/10/16 03:35:31;;;;;;;0.00;0.00;;;13.20;99.90;;;;;;5075310;28;20114;-82
2022/10/16 03:37:57;;;;;;;0.00;0.00;;;13.20;99.90;;;;;;5074952;28;20131;-82
2022/10/16 03:40:23;;;;;;;0.00;0.00;;;13.20;99.90;;;;;;5057867;28;20518;-83
2022/10/16 03:42:48;;;;;;;0.00;0.00;;;13.20;99.90;;;;;;5057113;28;20048;-83
2022/10/16 03:45:14;;;;;;;0.15;0.13;;;13.20;99.90;;;;;;5057743;28;20392;-83
2022/10/16 03:47:40;;;;;;;0.90;0.00;;;13.30;99.90;;;;;;5058165;28;20098;-82
2022/10/16 03:50:07;;;;;;;0.03;0.03;;;13.20;99.90;;;;;;5074126;28;20048;-83
2022/10/16 03:52:32;;;;;;;0.00;0.00;;;13.20;99.90;;;;;;5074209;28;20055;-82
2022/10/16 03:54:58;;;;;;;0.10;0.00;;;13.20;99.90;;;;;;5073958;28;20427;-83
2022/10/16 03:57:24;;;;;;;0.00;0.00;;;13.30;99.90;;;;;;5057475;28;20091;-83
2022/10/16 03:59:50;;;;;;;0.00;0.00;;;13.10;99.90;;;;;;5073810;28;20098;-83
2022/10/16 04:02:16;;;;;;;0.00;0.00;;;13.10;99.90;;;;;;5057721;28;20049;-83
2022/10/16 04:04:42;;;;;;;0.00;0.00;;;13.40;99.90;;;;;;5074459;28;20435;-83
2022/10/16 04:07:08;;;;;;;0.00;0.00;;;13.10;99.90;;;;;;5057802;28;20053;-82
2022/10/16 04:09:33;;;;;;;0.15;0.10;;;13.50;99.90;;;;;;5057433;28;20365;-82
2022/10/16 04:11:59;;;;;;;0.10;0.00;;;13.30;99.90;;;;;;5057282;28;20489;-82
2022/10/16 04:14:24;;;;;;;0.00;0.00;;;13.10;99.90;;;;;;5073887;28;20392;-83
2022/10/16 04:16:50;;;;;;;0.00;0.00;;;13.30;99.90;;;;;;5057068;28;20051;-83
2022/10/16 04:19:16;;;;;;;0.43;0.00;;;12.90;99.90;;;;;;5073599;28;20041;-83
2022/10/16 04:21:42;;;;;;;0.00;0.00;;;13.10;99.90;;;;;;5073497;28;20048;-83
2022/10/16 04:24:07;;;;;;;0.00;0.00;;;13.00;99.90;;;;;;5056865;28;20042;-83
2022/10/16 04:26:33;;;;;;;0.00;0.00;;;13.00;99.90;;;;;;5056826;28;20060;-83
2022/10/16 04:28:58;;;;;;;0.00;0.00;;;12.90;99.90;;;;;;5056946;28;20445;-83
2022/10/16 04:31:24;;;;;;;0.00;0.00;;;12.90;99.90;;;;;;5073443;28;20369;-83
2022/10/16 04:33:50;;;;;;;0.00;0.00;;;12.90;99.90;;;;;;5073016;28;20041;-83
2022/10/16 04:36:16;;;;;;;0.00;0.00;;;12.90;99.90;;;;;;5072168;28;20377;-83
2022/10/16 04:38:41;;;;;;;0.10;0.00;;;12.90;99.90;;;;;;5056284;28;20040;-83
2022/10/16 04:41:08;;;;;;;0.00;0.00;;;13.20;99.90;;;;;;5056500;28;20094;-83
2022/10/16 04:43:34;;;;;;;0.00;0.00;;;12.90;99.90;;;;;;5056638;28;20147;-83
2022/10/16 04:46:00;;;;;;;0.00;0.00;;;13.10;99.90;;;;;;5056728;28;20051;-82
2022/10/16 04:48:26;;;;;;;0.52;0.00;;;12.90;99.90;;;;;;5072884;28;20496;-82
2022/10/16 04:50:52;;;;;;;0.00;0.00;;;12.90;99.90;;;;;;5056228;28;20052;-83
2022/10/16 04:53:17;;;;;;;0.00;0.00;;;12.90;99.90;;;;;;5056311;28;20048;-83
2022/10/16 04:55:44;;;;;;;0.00;0.00;;;12.90;99.90;;;;;;5039708;28;20099;-83
2022/10/16 04:58:10;;;;;;;0.00;0.00;;;12.90;99.90;;;;;;5073038;28;20489;-83
2022/10/16 05:00:35;;;;;;;0.00;0.00;;;12.90;99.90;;;;;;5056518;28;20071;-83
2022/10/16 05:03:05;;;;;;;0.00;0.00;;;12.80;99.90;;;;;;5055983;28;20048;-83
2022/10/16 05:05:31;;;;;;;0.00;0.00;;;13.20;99.90;;;;;;5056498;28;20052;-83
2022/10/16 05:07:57;;;;;;;0.00;0.00;;;12.90;99.90;;;;;;5072871;28;20040;-83
2022/10/16 05:10:22;;;;;;;0.00;0.00;;;12.80;99.90;;;;;;5055576;28;20117;-83
2022/10/16 05:12:48;;;;;;;0.00;0.00;;;12.80;99.90;;;;;;5055405;28;20055;-84
2022/10/16 05:15:15;;;;;;;0.00;0.00;;;12.80;99.90;;;;;;5069539;28;20052;-84
2022/10/16 05:17:41;;;;;;;0.00;0.00;;;12.70;99.90;;;;;;5056848;28;20143;-84
2022/10/16 05:20:07;;;;;;;0.00;0.00;;;12.80;99.90;;;;;;5076530;28;20052;-85
2022/10/16 05:22:33;;;;;;;0.00;0.00;;;12.80;99.90;;;;;;5091499;28;20079;-85
2022/10/16 05:24:59;;;;;;;0.00;0.00;;;12.80;99.90;;;;;;5081932;28;20074;-83
2022/10/16 05:27:25;;;;;;;0.00;0.00;;;13.10;99.90;;;;;;5054938;28;20056;-84
2022/10/16 05:29:51;;;;;;;0.20;0.20;;;12.70;99.90;;;;;;5054860;28;20381;-83
2022/10/16 05:32:18;;;;;;;0.00;0.00;;;12.70;99.90;;;;;;5054640;28;20092;-84
2022/10/16 05:34:44;;;;;;;0.50;0.22;;;12.60;99.90;;;;;;5053371;28;20049;-84
2022/10/16 05:37:11;;;;;;;0.00;0.00;;;12.80;99.90;;;;;;5054413;28;20046;-84
2022/10/16 05:39:38;;;;;;;0.00;0.00;;;12.70;99.90;;;;;;5070870;28;20053;-83
2022/10/16 05:42:04;;;;;;;0.10;0.00;;;12.70;99.90;;;;;;5054248;28;20094;-83
2022/10/16 05:44:30;;;;;;;0.00;0.00;;;12.70;99.90;;;;;;5069623;28;20052;-84
2022/10/16 05:46:56;;;;;;;0.00;0.00;;;13.10;99.90;;;;;;5056611;28;20431;-84
2022/10/16 05:49:22;;;;;;;0.00;0.00;;;12.70;99.90;;;;;;5074460;28;20058;-84
2022/10/16 05:51:47;;;;;;;0.00;0.00;;;12.70;99.90;;;;;;5058289;28;20408;-84
2022/10/16 05:54:13;;;;;;;0.00;0.00;;;12.70;99.90;;;;;;5073400;28;20516;-84
2022/10/16 05:56:39;;;;;;;0.10;0.10;;;12.70;99.90;;;;;;5074282;28;20048;-84
2022/10/16 05:59:05;;;;;;;0.50;0.03;;;12.80;99.90;;;;;;5057936;28;20060;-84
2022/10/16 06:01:31;;;;;;;0.00;0.00;;;12.70;99.90;;;;;;5057614;28;20539;-84
2022/10/16 06:03:57;;;;;;;0.00;0.00;;;12.70;99.90;;;;;;5057712;28;20382;-85
2022/10/16 06:06:29;;;;;;;0.00;0.00;;;13.00;99.90;;;;;;5058275;28;20060;-85
2022/10/16 06:08:56;;;;;;;0.00;0.00;;;12.60;99.90;;;;;;5073581;28;20140;-84
2022/10/16 06:11:24;;;;;;;0.75;0.22;;;12.60;99.90;;;;;;5057869;28;20060;-85
2022/10/16 06:13:56;;;;;;;0.65;0.52;;;12.70;99.90;;;;;;5073122;28;20067;-86
2022/10/16 06:16:22;;;;;;;0.20;0.20;;;12.70;99.90;;;;;;5057670;28;20103;-85
2022/10/16 06:18:51;;;;;;;0.10;0.10;;;12.70;99.90;;;;;;5057344;28;20514;-85
2022/10/16 06:21:19;;;;;;;0.00;0.00;;;12.70;99.90;;;;;;5057377;28;20060;-85
2022/10/16 06:23:48;;;;;;;0.00;0.00;;;12.70;99.90;;;;;;5055989;28;20128;-85
2022/10/16 06:26:16;;;;;;;0.00;0.00;;;12.60;99.90;;;;;;5058133;28;20053;-84
2022/10/16 06:28:42;;;;;;;0.00;0.00;;;12.70;99.90;;;;;;5058199;28;20048;-84
2022/10/16 06:31:09;;;;;;;0.00;0.00;;;12.80;99.90;;;;;;5056304;28;20536;-85
2022/10/16 06:33:36;;;;;;;4.00;0.80;;;12.80;99.90;;;;;;5073620;28;20041;-84
2022/10/16 06:36:08;;;;;;;0.00;0.00;;;12.90;99.90;;;;;;5056885;28;20078;-85
2022/10/16 06:38:35;;;;;;;0.20;0.20;;;12.80;99.90;;;;;;5057616;28;20053;-85
2022/10/16 06:41:02;;;;;;;0.20;0.20;;;12.80;99.90;;;;;;5074231;28;20048;-84
2022/10/16 06:43:32;;;;;;;0.00;0.00;;;13.00;99.90;;;;;;5057866;28;20044;-84
2022/10/16 06:45:59;;;;;;;0.00;0.00;;;12.90;99.90;;;;;;5056995;28;20048;-85
2022/10/16 06:48:25;;;;;;;0.00;0.00;;;12.80;99.90;;;;;;5058660;28;20052;-84
2022/10/16 06:51:10;;;;;;;0.00;0.00;;;13.10;99.90;;;;;;5059699;28;20047;-84
2022/10/16 06:53:39;;;;;;;0.00;0.00;;;12.80;99.90;;;;;;5058658;28;20044;-85
2022/10/16 06:56:13;;;;;;;0.10;0.10;;;12.90;99.90;;;;;;5075140;28;20082;-83
2022/10/16 06:58:40;;;;;;;0.00;0.00;;;12.90;99.90;;;;;;5058141;28;20094;-84
2022/10/16 07:01:06;;;;;;;0.00;0.00;;;12.90;99.90;;;;;;5075640;28;20087;-84
2022/10/16 07:03:32;;;;;;;0.00;0.00;;;12.90;99.90;;;;;;5059209;28;20503;-84
2022/10/16 07:06:03;;;;;;;0.00;0.00;;;13.00;99.90;;;;;;5058633;28;20074;-84
2022/10/16 07:08:32;;;;;;;0.00;0.00;;;12.90;99.90;;;;;;5059375;28;20396;-83
2022/10/16 07:11:02;;;;;;;0.00;0.00;;;13.10;99.90;;;;;;5076216;28;20044;-84
2022/10/16 07:13:29;;;;;;;0.00;0.00;;;13.10;99.90;;;;;;5080101;28;20037;-84
2022/10/16 07:15:54;;;;;;;0.00;0.00;;;13.00;99.90;;;;;;5094087;28;20055;-84
2022/10/16 07:18:20;;;;;;;0.00;0.00;;;13.10;99.90;;;;;;5078737;28;20096;-83
2022/10/16 07:20:46;;;;;;;0.00;0.00;;;13.20;99.90;;;;;;5079780;28;20487;-83
2022/10/16 07:23:11;;;;;;;0.00;0.00;;;13.30;99.90;;;;;;5075745;28;20044;-85
2022/10/16 07:25:37;;;;;;;0.00;0.00;;;13.30;99.90;;;;;;5058610;28;20101;-84
2022/10/16 07:28:03;;;;;;;0.10;0.00;;;13.40;99.90;;;;;;5058673;28;20052;-84
2022/10/16 07:30:28;;;;;;;0.00;0.00;;;13.30;99.90;;;;;;5058407;28;20091;-85
2022/10/16 07:32:54;;;;;;;0.10;0.10;;;13.40;99.90;;;;;;5058246;28;20125;-84
2022/10/16 07:35:20;;;;;;;0.00;0.00;;;13.40;99.90;;;;;;5074768;28;20040;-83
2022/10/16 07:37:46;;;;;;;0.00;0.00;;;13.60;99.90;;;;;;5074665;28;20452;-84
2022/10/16 07:40:12;;;;;;;0.00;0.00;;;13.60;99.90;;;;;;5074435;28;20055;-84
2022/10/16 07:42:37;;;;;;;0.32;0.20;;;13.60;99.90;;;;;;5075686;28;20131;-84
2022/10/16 07:45:04;;;;;;;0.00;0.00;;;13.80;99.90;;;;;;5058100;28;20064;-83
2022/10/16 07:47:29;;;;;;;0.00;0.00;;;13.70;99.90;;;;;;5057979;28;20040;-84
2022/10/16 07:49:55;;;;;;;0.20;0.00;;;13.80;99.90;;;;;;5058268;28;20118;-84
2022/10/16 07:52:21;;;;;;;0.00;0.00;;;13.80;99.90;;;;;;5057615;28;20040;-83
2022/10/16 07:54:47;;;;;;;0.00;0.00;;;13.80;99.90;;;;;;5057058;28;20550;-84
2022/10/16 07:57:18;;;;;;;0.00;0.00;;;13.90;99.90;;;;;;5074250;28;20047;-84
2022/10/16 07:59:45;;;;;;;0.00;0.00;;;13.80;99.90;;;;;;5073455;28;20037;-83
2022/10/16 08:02:10;;;;;;;0.00;0.00;;;13.80;99.90;;;;;;5073902;28;20041;-83
2022/10/16 08:04:36;;;;;;;0.00;0.00;;;14.10;99.90;;;;;;5074030;28;20048;-83
2022/10/16 08:07:02;;;;;;;0.00;0.00;;;13.90;99.90;;;;;;5057408;28;20047;-83
2022/10/16 08:09:27;;;;;;;0.10;0.00;;;14.00;99.90;;;;;;5056529;28;20044;-84
2022/10/16 08:11:53;;;;;;;0.00;0.00;;;13.90;99.90;;;;;;5073756;28;20051;-84
2022/10/16 08:14:19;;;;;;;0.00;0.00;;;13.90;99.90;;;;;;5057381;28;20044;-84
2022/10/16 08:16:44;;;;;;;0.95;0.25;;;14.80;99.90;;;;;;5056929;28;20400;-84
2022/10/16 08:19:10;;;;;;;0.32;0.32;;;14.10;99.90;;;;;;5056959;28;20053;-84
2022/10/16 08:21:36;;;;;;;0.00;0.00;;;14.20;99.90;;;;;;5056958;28;20051;-84
2022/10/16 08:24:01;;;;;;;0.00;0.00;;;14.20;99.90;;;;;;5073798;28;20036;-84
2022/10/16 08:26:27;;;;;;;0.00;0.00;;;14.20;99.90;;;;;;5056980;28;20040;-83
2022/10/16 08:28:54;;;;;;;0.00;0.00;;;14.20;99.90;;;;;;5074117;28;20052;-84
2022/10/16 08:31:20;;;;;;;0.00;0.00;;;14.20;99.90;;;;;;5073315;28;20481;-84
2022/10/16 08:33:47;;;;;;;0.00;0.00;;;14.30;99.90;;;;;;5056787;28;20086;-84
2022/10/16 08:36:14;;;;;;;0.00;0.00;;;14.40;99.90;;;;;;5073484;28;20135;-86
2022/10/16 08:38:40;;;;;;;0.00;0.00;;;14.50;99.90;;;;;;5072395;28;20049;-87
2022/10/16 08:41:27;;;;;;;0.00;0.00;;;14.70;99.90;;;;;;5056541;28;20087;-83
2022/10/16 08:44:30;;;;;;;0.00;0.00;;;14.90;99.90;;;;;;5073492;28;20055;-84
2022/10/16 08:46:56;;;;;;;0.00;0.00;;;15.10;99.90;;;;;;5073005;28;20496;-84
2022/10/16 08:49:24;;;;;;;0.08;0.08;;;15.30;99.90;;;;;;5073698;28;20083;-84
2022/10/16 08:51:50;;;;;;;0.00;0.00;;;15.50;99.90;;;;;;5054809;28;20044;-85
2022/10/16 08:54:40;;;;;;;0.00;0.00;;;15.40;99.90;;;;;;5056196;28;20052;-85
2022/10/16 08:57:20;;;;;;;0.00;0.00;;;15.30;99.90;;;;;;5056675;28;20045;-84
2022/10/16 08:59:46;;;;;;;0.00;0.00;;;15.40;99.90;;;;;;5057540;28;20071;-84
2022/10/16 09:02:40;;;;;;;2.22;0.32;;;15.50;99.90;;;;;;5073936;28;20404;-84
2022/10/16 09:05:47;;;;;;;0.00;0.00;;;15.60;99.90;;;;;;5072926;28;20159;-84
2022/10/16 09:08:28;;;;;;;0.00;0.00;;;15.90;99.90;;;;;;5054342;28;20060;-83
2022/10/16 09:11:10;;;;;;;0.00;0.00;;;16.20;99.90;;;;;;5090218;28;20491;-83
2022/10/16 09:13:49;;;;;;;0.00;0.00;;;16.50;99.90;;;;;;5075996;28;20048;-85
2022/10/16 09:16:34;;;;;;;0.00;0.00;;;16.80;99.90;;;;;;5079762;28;20106;-84
2022/10/16 09:19:21;;;;;;;0.00;0.00;;;17.10;99.90;;;;;;5074376;28;20131;-85
2022/10/16 09:21:47;;;;;;;0.00;0.00;;;17.30;99.90;;;;;;5058566;28;20078;-86
2022/10/16 09:24:15;;;;;;;0.00;0.00;;;17.40;99.90;;;;;;5060630;28;20048;-86
2022/10/16 09:26:41;;;;;;;0.00;0.00;;;17.60;99.90;;;;;;5076577;28;20052;-86
2022/10/16 09:29:08;;;;;;;1.10;0.43;;;17.80;99.90;;;;;;5076985;28;20040;-86
2022/10/16 09:31:37;;;;;;;0.00;0.00;;;17.90;99.90;;;;;;5060415;28;20048;-85
2022/10/16 09:34:06;;;;;;;0.00;0.00;;;18.10;99.90;;;;;;5060049;28;20167;-85
2022/10/16 09:36:44;;;;;;;0.00;0.00;;;18.20;99.90;;;;;;5076728;28;20389;-85
2022/10/16 09:39:14;;;;;;;0.00;0.00;;;18.50;99.90;;;;;;5060841;28;20083;-86
2022/10/16 09:41:43;;;;;;;0.20;0.20;;;18.70;99.90;;;;;;5077308;28;20048;-85
2022/10/16 09:44:31;;;;;;;0.00;0.00;;;18.70;99.90;;;;;;5060079;28;20442;-85
2022/10/16 09:47:06;;;;;;;0.00;0.00;;;18.70;99.90;;;;;;5077589;28;20169;-85
2022/10/16 09:49:33;;;;;;;0.05;0.05;;;19.00;99.90;;;;;;5076308;28;20456;-85
2022/10/16 09:52:14;;;;;;;0.00;0.00;;;18.90;99.90;;;;;;5060096;28;20447;-85
2022/10/16 09:54:51;;;;;;;0.00;0.00;;;18.90;99.90;;;;;;5059559;28;20052;-84
2022/10/16 09:57:17;;;;;;;0.00;0.00;;;18.80;99.90;;;;;;5059455;28;20499;-86
2022/10/16 09:59:54;;;;;;;0.10;0.10;;;18.70;99.90;;;;;;5059650;28;20044;-86
2022/10/16 10:02:30;;;;;;;0.00;0.00;;;18.70;99.90;;;;;;5076782;28;20090;-86
2022/10/16 10:04:56;;;;;;;0.00;0.00;;;18.70;99.90;;;;;;5060719;28;20076;-87
2022/10/16 10:07:34;;;;;;;0.00;0.00;;;18.70;99.90;;;;;;5059507;28;20088;-85
2022/10/16 10:10:02;;;;;;;0.00;0.00;;;18.80;99.90;;;;;;5076632;28;20519;-86
2022/10/16 10:12:32;;;;;;;0.10;0.10;;;18.90;99.90;;;;;;5059936;28;20449;-86
2022/10/16 10:15:12;;;;;;;0.00;0.00;;;18.80;99.90;;;;;;5059604;28;20045;-88
2022/10/16 10:18:18;;;;;;;0.13;0.13;;;18.80;99.90;;;;;;5077098;28;20083;-87
2022/10/16 10:20:58;;;;;;;0.00;0.00;;;19.00;99.90;;;;;;5039260;28;20461;-87
2022/10/16 10:23:26;;;;;;;0.03;0.03;;;19.10;99.90;;;;;;5022646;28;20437;-86
2022/10/16 10:26:06;;;;;;;0.00;0.00;;;19.10;99.90;;;;;;5038399;28;20394;-86
2022/10/16 10:28:46;;;;;;;0.00;0.00;;;19.30;99.90;;;;;;5022111;28;20155;-87
2022/10/16 10:31:30;;;;;;;0.00;0.00;;;19.40;99.90;;;;;;5038693;28;20064;-87
2022/10/16 10:34:20;;;;;;;0.00;0.00;;;19.50;99.90;;;;;;5036715;28;20098;-87
2022/10/16 10:36:56;;;;;;;0.00;0.00;;;19.50;99.90;;;;;;5038426;28;20048;-86
2022/10/16 10:39:32;;;;;;;0.00;0.00;;;19.30;99.90;;;;;;5038672;28;20050;-86
2022/10/16 10:42:15;;;;;;;0.00;0.00;;;19.10;99.90;;;;;;5021473;28;20444;-87
2022/10/16 10:45:11;;;;;;;0.70;0.32;;;18.80;99.90;;;;;;5021447;28;20052;-86
2022/10/16 10:48:14;;;;;;;0.00;0.00;;;18.70;99.90;;;;;;5021063;28;20068;-87
2022/10/16 10:50:51;;;;;;;0.32;0.32;;;18.50;99.90;;;;;;5037670;28;20088;-85
2022/10/16 10:53:34;;;;;;;0.35;0.35;;;18.70;99.90;;;;;;5037817;28;20048;-86
2022/10/16 10:56:15;;;;;;;0.52;0.40;;;18.80;99.90;;;;;;5039942;28;20563;-87
2022/10/16 10:58:53;;;;;;;0.68;0.00;;;18.80;99.90;;;;;;5075169;28;20071;-87
2022/10/16 11:01:30;;;;;;;0.08;0.00;;;18.70;99.90;;;;;;5058642;28;20054;-87
2022/10/16 11:04:34;;;;;;;0.00;0.00;;;18.60;99.90;;;;;;5075703;28;20511;-87
2022/10/16 11:07:17;;;;;;;0.45;0.45;;;18.50;99.90;;;;;;5058964;28;20052;-87
2022/10/16 11:09:51;;;;;;;0.00;0.00;;;18.40;99.90;;;;;;5073280;28;20099;-86
2022/10/16 11:12:34;;;;;;;0.00;0.00;;;18.40;99.90;;;;;;5081492;28;20036;-85
2022/10/16 11:15:25;;;;;;;0.08;0.08;;;18.40;99.90;;;;;;5091959;28;20049;-87
2022/10/16 11:18:20;;;;;;;0.30;0.28;;;18.40;99.90;;;;;;5045617;28;20457;-88
2022/10/16 11:20:49;;;;;;;;;;;18.30;99.90;;;;;;5039640;28;20055;-87
2022/10/16 11:23:26;;;;;;;0.00;0.00;;;18.30;99.90;;;;;;5055942;28;20364;-87
2022/10/16 11:25:56;;;;;;;0.00;0.00;;;18.50;99.90;;;;;;5039061;28;20139;-87
2022/10/16 11:28:28;;;;;;;0.10;0.00;;;18.60;99.90;;;;;;5037865;28;20057;-87
2022/10/16 11:31:02;;;;;;;2.55;1.00;;;18.60;99.90;;;;;;5054746;28;20397;-87
2022/10/16 11:33:39;;;;;;;0.00;0.00;;;18.60;99.90;;;;;;5055482;28;20045;-88
2022/10/16 11:36:32;;;;;;;0.00;0.00;;;18.60;99.90;;;;;;5037772;28;20496;-88
2022/10/16 11:39:11;;;;;;;0.00;0.00;;;18.40;99.90;;;;;;5038316;28;20045;-87
2022/10/16 11:42:18;;;;;;;1.60;0.45;;;18.40;99.90;;;;;;5054607;28;20045;-88
2022/10/16 11:45:02;;;;;;;0.38;0.38;;;18.20;99.90;;;;;;5037234;28;20057;-87
2022/10/16 11:47:45;;;;;;;0.00;0.00;;;18.30;99.90;;;;;;5037836;28;20044;-87
2022/10/16 11:50:28;;;;;;;0.00;0.00;;;18.40;99.90;;;;;;5054656;28;20424;-86
2022/10/16 11:52:54;;;;;;;0.20;0.20;;;18.40;99.90;;;;;;5037442;28;20508;-87
2022/10/16 11:55:20;;;;;;;0.10;0.10;;;18.30;99.90;;;;;;5054283;28;20058;-88
2022/10/16 11:58:02;;;;;;;0.00;0.00;;;18.50;99.90;;;;;;5037981;28;20048;-87
2022/10/16 12:00:36;;;;;;;1.27;0.43;;;18.80;99.90;;;;;;5038398;28;20150;-86
2022/10/16 12:03:14;;;;;;;0.20;0.20;;;19.00;99.90;;;;;;5055129;28;20041;-87
2022/10/16 12:06:10;;;;;;;0.20;0.17;;;19.30;99.90;;;;;;5069287;28;20066;-87
2022/10/16 12:08:36;;;;;;;0.03;0.03;;;19.60;99.90;;;;;;5037620;28;20052;-87
2022/10/16 12:11:27;;;;;;;0.20;0.20;;;20.00;99.90;;;;;;5037599;28;20095;-87
2022/10/16 12:14:07;;;;;;;0.52;0.47;;;20.40;99.90;;;;;;5053120;28;20520;-87
2022/10/16 12:16:32;;;;;;;0.00;0.00;;;20.60;99.90;;;;;;5037595;28;20049;-87
2022/10/16 12:19:16;;;;;;;0.00;0.00;;;20.70;99.90;;;;;;5053653;28;20123;-87
2022/10/16 12:21:44;;;;;;;0.00;0.00;;;20.20;99.90;;;;;;5036804;28;20115;-87
2022/10/16 12:24:40;;;;;;;0.00;0.00;;;19.90;99.90;;;;;;5037026;28;20077;-86
2022/10/16 12:27:30;;;;;;;0.98;0.22;;;19.80;99.90;;;;;;5041168;28;20052;-87
2022/10/16 12:29:59;;;;;;;0.00;0.00;;;19.30;99.90;;;;;;5036659;28;20102;-87
2022/10/16 12:32:37;;;;;;;0.13;0.10;;;18.90;99.90;;;;;;5036370;28;20373;-86
2022/10/16 12:35:06;;;;;;;0.00;0.00;;;18.70;99.90;;;;;;5053061;28;20064;-86
2022/10/16 12:37:37;;;;;;;2.22;0.98;;;18.70;99.90;;;;;;5036830;28;20083;-86
2022/10/16 12:40:16;;;;;;;0.00;0.00;;;18.80;99.90;;;;;;5052899;28;20106;-86
2022/10/16 12:42:42;;;;;;;0.00;0.00;;;18.70;99.90;;;;;;5036471;28;20052;-86
2022/10/16 12:45:26;;;;;;;0.57;0.17;;;18.40;99.90;;;;;;5056411;28;20047;-85
2022/10/16 12:47:54;;;;;;;0.00;0.00;;;18.30;99.90;;;;;;5036933;28;20483;-85
2022/10/16 12:50:30;;;;;;;0.30;0.20;;;18.40;99.90;;;;;;5036193;28;20409;-85
2022/10/16 12:53:00;;;;;;;0.00;0.00;;;18.40;99.90;;;;;;5053487;28;20061;-86
2022/10/16 12:55:30;;;;;;;0.10;0.05;;;18.50;99.90;;;;;;5052174;28;20057;-86
2022/10/16 12:58:11;;;;;;;0.00;0.00;;;18.60;99.90;;;;;;5039957;28;20489;-86
2022/10/16 13:00:50;;;;;;;0.10;0.10;;;18.50;99.90;;;;;;5054586;28;20048;-87
2022/10/16 13:03:38;;;;;;;0.00;0.00;;;18.30;99.90;;;;;;5059065;28;20048;-86
2022/10/16 13:06:22;;;;;;;0.03;0.03;;;18.20;99.90;;;;;;5073246;28;20041;-88
2022/10/16 13:09:25;;;;;;;0.08;0.08;;;18.20;99.90;;;;;;5056332;28;20052;-86